createdAt,value
2023-04-21T00:00:41.617Z,0.00
2023-04-21T00:02:02.614Z,0.00
2023-04-21T00:03:02.716Z,0.00
2023-04-21T00:03:41.692Z,0.00
2023-04-21T00:04:41.620Z,0.00
2023-04-21T00:05:41.569Z,0.00
2023-04-21T00:07:02.421Z,0.00
2023-04-21T00:08:02.358Z,0.00
2023-04-21T00:08:41.325Z,0.00
2023-04-21T00:09:41.294Z,0.00
2023-04-21T00:10:41.267Z,0.00
2023-04-21T00:12:02.239Z,0.00
2023-04-21T00:13:02.181Z,0.00
2023-04-21T00:13:41.160Z,0.00
2023-04-21T00:14:41.140Z,0.00
2023-04-21T00:15:41.164Z,0.00
2023-04-21T00:17:02.040Z,0.00
2023-04-21T00:18:02.108Z,0.00
2023-04-21T00:18:40.965Z,0.00
2023-04-21T00:19:41.000Z,0.00
2023-04-21T00:20:40.909Z,0.00
2023-04-21T00:22:01.863Z,0.00
2023-04-21T00:23:01.847Z,0.00
2023-04-21T00:23:40.787Z,0.00
2023-04-21T00:24:40.743Z,0.00
2023-04-21T00:25:40.737Z,0.00
2023-04-21T00:27:01.716Z,0.00
2023-04-21T00:28:01.641Z,0.00
2023-04-21T00:28:40.609Z,0.00
2023-04-21T00:29:40.595Z,0.00
2023-04-21T00:30:40.532Z,0.00
2023-04-21T00:32:01.615Z,0.00
2023-04-21T00:33:01.535Z,0.00
2023-04-21T00:33:40.426Z,0.00
2023-04-21T00:34:40.391Z,0.00
2023-04-21T00:35:40.348Z,0.00
2023-04-21T00:37:01.328Z,0.00
2023-04-21T00:38:01.306Z,0.00
2023-04-21T00:38:40.245Z,0.00
2023-04-21T00:39:40.222Z,0.00
2023-04-21T00:40:40.169Z,0.00
2023-04-21T00:42:01.153Z,0.00
2023-04-21T00:43:01.109Z,0.00
2023-04-21T00:43:40.071Z,0.00
2023-04-21T00:44:40.025Z,0.00
2023-04-21T00:45:40.032Z,0.00
2023-04-21T00:47:00.991Z,0.00
2023-04-21T00:48:00.986Z,0.00
2023-04-21T00:48:39.877Z,0.00
2023-04-21T00:49:39.885Z,0.00
2023-04-21T00:50:39.802Z,0.00
2023-04-21T00:52:00.798Z,0.00
2023-04-21T00:53:00.734Z,0.00
2023-04-21T00:53:39.719Z,0.00
2023-04-21T00:54:39.667Z,0.00
2023-04-21T00:55:39.662Z,0.00
2023-04-21T00:57:02.376Z,0.00
2023-04-21T00:58:00.549Z,0.00
2023-04-21T00:58:39.519Z,0.00
2023-04-21T00:59:39.498Z,0.00
2023-04-21T01:00:39.501Z,0.00
2023-04-21T01:02:00.525Z,0.00
2023-04-21T01:03:00.538Z,0.00
2023-04-21T01:03:39.428Z,0.00
2023-04-21T01:04:39.300Z,0.00
2023-04-21T01:05:39.277Z,0.00
2023-04-21T01:07:00.237Z,0.00
2023-04-21T01:08:00.207Z,0.00
2023-04-21T01:08:39.168Z,0.00
2023-04-21T01:09:39.141Z,0.00
2023-04-21T01:10:39.076Z,0.00
2023-04-21T01:12:00.139Z,0.00
2023-04-21T01:13:00.013Z,0.00
2023-04-21T01:13:38.986Z,0.00
2023-04-21T01:14:38.940Z,0.00
2023-04-21T01:15:38.915Z,0.00
2023-04-21T01:16:59.939Z,0.00
2023-04-21T01:17:59.900Z,0.00
2023-04-21T01:18:38.817Z,0.00
2023-04-21T01:19:38.775Z,0.00
2023-04-21T01:20:38.716Z,0.00
2023-04-21T01:21:59.695Z,0.00
2023-04-21T01:22:59.644Z,0.00
2023-04-21T01:23:38.632Z,0.00
2023-04-21T01:24:38.577Z,0.00
2023-04-21T01:25:38.570Z,0.00
2023-04-21T01:26:59.508Z,0.00
2023-04-21T01:27:59.503Z,0.00
2023-04-21T01:28:38.464Z,0.00
2023-04-21T01:29:38.427Z,0.00
2023-04-21T01:30:38.357Z,0.00
2023-04-21T01:31:59.403Z,0.00
2023-04-21T01:32:59.317Z,0.00
2023-04-21T01:33:38.285Z,0.00
2023-04-21T01:34:38.220Z,0.00
2023-04-21T01:35:38.195Z,0.00
2023-04-21T01:36:59.144Z,0.00
2023-04-21T01:37:59.120Z,0.00
2023-04-21T01:38:38.073Z,0.00
2023-04-21T01:39:38.077Z,0.00
2023-04-21T01:40:38.013Z,0.00
2023-04-21T01:41:58.982Z,0.00
2023-04-21T01:42:58.923Z,0.00
2023-04-21T01:43:37.905Z,0.00
2023-04-21T01:44:37.863Z,0.00
2023-04-21T01:45:37.852Z,0.00
2023-04-21T01:46:58.777Z,0.00
2023-04-21T01:47:58.777Z,0.00
2023-04-21T01:48:37.711Z,0.00
2023-04-21T01:49:37.688Z,0.00
2023-04-21T01:50:37.663Z,0.00
2023-04-21T01:51:58.607Z,0.00
2023-04-21T01:52:58.566Z,0.00
2023-04-21T01:53:37.549Z,0.00
2023-04-21T01:54:37.512Z,0.00
2023-04-21T01:55:37.477Z,0.00
2023-04-21T01:56:58.502Z,0.00
2023-04-21T01:57:58.397Z,0.00
2023-04-21T01:58:37.352Z,0.00
2023-04-21T01:59:37.336Z,0.00
2023-04-21T02:00:37.280Z,0.00
2023-04-21T02:01:58.430Z,0.00
2023-04-21T02:02:58.346Z,0.00
2023-04-21T02:03:37.502Z,0.00
2023-04-21T02:04:37.195Z,0.00
2023-04-21T02:05:37.125Z,0.00
2023-04-21T02:06:58.068Z,0.00
2023-04-21T02:07:58.028Z,0.00
2023-04-21T02:08:36.998Z,0.00
2023-04-21T02:09:36.945Z,0.00
2023-04-21T02:10:36.937Z,0.00
2023-04-21T02:11:57.905Z,0.00
2023-04-21T02:12:57.850Z,0.00
2023-04-21T02:13:36.827Z,0.00
2023-04-21T02:14:36.785Z,0.00
2023-04-21T02:15:36.776Z,0.00
2023-04-21T02:16:57.702Z,0.00
2023-04-21T02:17:57.703Z,0.00
2023-04-21T02:18:36.625Z,0.00
2023-04-21T02:19:36.600Z,0.00
2023-04-21T02:20:36.551Z,0.00
2023-04-21T02:21:57.516Z,0.00
2023-04-21T02:22:57.485Z,0.00
2023-04-21T02:23:36.471Z,0.00
2023-04-21T02:24:36.409Z,0.00
2023-04-21T02:25:36.398Z,0.00
2023-04-21T02:26:57.339Z,0.00
2023-04-21T02:27:57.317Z,0.00
2023-04-21T02:28:36.488Z,0.00
2023-04-21T02:29:36.240Z,0.00
2023-04-21T02:30:36.188Z,0.00
2023-04-21T02:32:02.784Z,0.00
2023-04-21T02:32:57.229Z,0.00
2023-04-21T02:33:36.099Z,0.00
2023-04-21T02:34:36.042Z,0.00
2023-04-21T02:35:36.035Z,0.00
2023-04-21T02:36:56.965Z,0.00
2023-04-21T02:37:56.928Z,0.00
2023-04-21T02:38:35.924Z,0.00
2023-04-21T02:39:35.885Z,0.00
2023-04-21T02:40:35.843Z,0.00
2023-04-21T02:41:56.867Z,0.00
2023-04-21T02:42:56.845Z,0.00
2023-04-21T02:43:35.742Z,0.00
2023-04-21T02:44:35.699Z,0.00
2023-04-21T02:45:35.645Z,0.00
2023-04-21T02:46:56.728Z,0.00
2023-04-21T02:47:56.699Z,0.00
2023-04-21T02:48:35.584Z,0.00
2023-04-21T02:49:35.522Z,0.00
2023-04-21T02:50:35.482Z,0.00
2023-04-21T02:51:56.450Z,0.00
2023-04-21T02:52:56.403Z,0.00
2023-04-21T02:53:35.358Z,0.00
2023-04-21T02:54:35.350Z,0.00
2023-04-21T02:55:35.304Z,0.00
2023-04-21T02:56:56.249Z,0.00
2023-04-21T02:57:56.209Z,0.00
2023-04-21T02:58:35.169Z,0.00
2023-04-21T02:59:35.140Z,0.00
2023-04-21T03:00:35.144Z,0.00
2023-04-21T03:01:56.078Z,0.00
2023-04-21T03:02:56.150Z,0.00
2023-04-21T03:03:35.059Z,0.00
2023-04-21T03:04:35.028Z,0.00
2023-04-21T03:05:34.934Z,0.00
2023-04-21T03:06:55.886Z,0.00
2023-04-21T03:07:55.854Z,0.00
2023-04-21T03:08:34.832Z,0.00
2023-04-21T03:09:34.776Z,0.00
2023-04-21T03:10:34.793Z,0.00
2023-04-21T03:11:55.713Z,0.00
2023-04-21T03:12:55.657Z,0.00
2023-04-21T03:13:34.666Z,0.00
2023-04-21T03:14:34.598Z,0.00
2023-04-21T03:15:34.587Z,0.00
2023-04-21T03:16:55.670Z,0.00
2023-04-21T03:17:55.585Z,0.00
2023-04-21T03:18:34.453Z,0.00
2023-04-21T03:19:34.449Z,0.00
2023-04-21T03:20:34.377Z,0.00
2023-04-21T03:21:55.352Z,0.00
2023-04-21T03:22:55.310Z,0.00
2023-04-21T03:23:34.300Z,0.00
2023-04-21T03:24:34.243Z,0.00
2023-04-21T03:25:34.224Z,0.00
2023-04-21T03:26:55.161Z,0.00
2023-04-21T03:27:55.149Z,0.00
2023-04-21T03:28:34.090Z,0.00
2023-04-21T03:29:34.079Z,0.00
2023-04-21T03:30:34.014Z,0.00
2023-04-21T03:31:55.062Z,0.00
2023-04-21T03:32:55.047Z,0.00
2023-04-21T03:33:33.939Z,0.00
2023-04-21T03:34:33.877Z,0.00
2023-04-21T03:35:33.855Z,0.00
2023-04-21T03:36:54.807Z,0.00
2023-04-21T03:37:54.836Z,0.00
2023-04-21T03:38:33.733Z,0.00
2023-04-21T03:39:33.722Z,0.00
2023-04-21T03:40:33.669Z,0.00
2023-04-21T03:41:54.640Z,0.00
2023-04-21T03:42:54.578Z,0.00
2023-04-21T03:43:33.580Z,0.00
2023-04-21T03:44:33.520Z,0.00
2023-04-21T03:45:33.511Z,0.00
2023-04-21T03:46:54.452Z,0.00
2023-04-21T03:47:54.462Z,0.00
2023-04-21T03:48:33.409Z,0.00
2023-04-21T03:49:33.345Z,0.00
2023-04-21T03:50:33.309Z,0.00
2023-04-21T03:51:54.253Z,0.00
2023-04-21T03:52:54.209Z,0.00
2023-04-21T03:53:33.179Z,0.00
2023-04-21T03:54:33.164Z,0.00
2023-04-21T03:55:33.127Z,0.00
2023-04-21T03:56:54.072Z,0.00
2023-04-21T03:57:54.069Z,0.00
2023-04-21T03:58:33.011Z,0.00
2023-04-21T03:59:32.970Z,0.00
2023-04-21T04:00:32.962Z,0.00
2023-04-21T04:01:53.901Z,0.00
2023-04-21T04:02:53.959Z,0.00
2023-04-21T04:03:32.937Z,0.00
2023-04-21T04:04:32.985Z,0.00
2023-04-21T04:05:32.785Z,0.00
2023-04-21T04:06:53.702Z,4.00
2023-04-21T04:07:53.711Z,4.00
2023-04-21T04:08:32.638Z,0.00
2023-04-21T04:09:32.624Z,0.00
2023-04-21T04:10:32.555Z,4.00
2023-04-21T04:11:53.525Z,4.00
2023-04-21T04:12:53.487Z,4.00
2023-04-21T04:13:32.469Z,4.00
2023-04-21T04:14:32.422Z,8.00
2023-04-21T04:15:32.434Z,8.00
2023-04-21T04:16:53.344Z,8.00
2023-04-21T04:17:53.373Z,8.00
2023-04-21T04:18:32.271Z,12.00
2023-04-21T04:19:32.264Z,12.00
2023-04-21T04:20:32.196Z,12.00
2023-04-21T04:21:53.150Z,20.00
2023-04-21T04:22:53.132Z,20.00
2023-04-21T04:23:32.107Z,20.00
2023-04-21T04:24:32.048Z,24.00
2023-04-21T04:25:32.027Z,28.00
2023-04-21T04:26:52.994Z,28.00
2023-04-21T04:27:52.950Z,32.00
2023-04-21T04:28:31.915Z,36.00
2023-04-21T04:29:31.869Z,40.00
2023-04-21T04:30:31.856Z,48.00
2023-04-21T04:31:52.820Z,48.00
2023-04-21T04:32:52.800Z,52.00
2023-04-21T04:33:31.736Z,60.00
2023-04-21T04:34:31.708Z,64.00
2023-04-21T04:35:32.484Z,68.00
2023-04-21T04:36:52.593Z,72.00
2023-04-21T04:37:52.577Z,76.00
2023-04-21T04:38:31.525Z,80.00
2023-04-21T04:39:31.513Z,88.00
2023-04-21T04:40:31.467Z,92.00
2023-04-21T04:41:52.437Z,96.00
2023-04-21T04:42:52.386Z,104.00
2023-04-21T04:43:31.369Z,104.00
2023-04-21T04:44:31.317Z,112.00
2023-04-21T04:45:31.269Z,116.00
2023-04-21T04:46:52.314Z,124.00
2023-04-21T04:47:52.283Z,128.00
2023-04-21T04:48:31.158Z,136.00
2023-04-21T04:49:31.126Z,140.00
2023-04-21T04:50:31.087Z,140.00
2023-04-21T04:51:52.052Z,148.00
2023-04-21T04:52:52.002Z,152.00
2023-04-21T04:53:30.995Z,160.00
2023-04-21T04:54:30.944Z,164.00
2023-04-21T04:55:30.919Z,168.00
2023-04-21T04:56:51.855Z,176.00
2023-04-21T04:57:51.843Z,176.00
2023-04-21T04:58:30.788Z,184.00
2023-04-21T04:59:30.813Z,192.00
2023-04-21T05:00:30.727Z,196.00
2023-04-21T05:01:51.780Z,204.00
2023-04-21T05:02:51.756Z,208.00
2023-04-21T05:03:30.745Z,212.00
2023-04-21T05:04:30.766Z,220.00
2023-04-21T05:05:30.582Z,228.00
2023-04-21T05:06:51.583Z,232.00
2023-04-21T05:07:51.491Z,240.00
2023-04-21T05:08:30.481Z,252.00
2023-04-21T05:09:30.407Z,268.00
2023-04-21T05:10:30.373Z,288.00
2023-04-21T05:11:51.332Z,300.00
2023-04-21T05:12:51.286Z,308.00
2023-04-21T05:13:30.247Z,316.00
2023-04-21T05:14:30.238Z,316.00
2023-04-21T05:15:30.160Z,328.00
2023-04-21T05:16:51.204Z,340.00
2023-04-21T05:17:51.111Z,352.00
2023-04-21T05:18:30.079Z,360.00
2023-04-21T05:19:30.031Z,368.00
2023-04-21T05:20:29.993Z,372.00
2023-04-21T05:21:50.938Z,380.00
2023-04-21T05:22:50.927Z,388.00
2023-04-21T05:23:29.872Z,396.00
2023-04-21T05:24:29.843Z,400.00
2023-04-21T05:25:29.803Z,408.00
2023-04-21T05:26:50.769Z,420.00
2023-04-21T05:27:50.724Z,432.00
2023-04-21T05:28:29.723Z,440.00
2023-04-21T05:29:29.685Z,452.00
2023-04-21T05:30:29.633Z,460.00
2023-04-21T05:31:50.665Z,472.00
2023-04-21T05:32:50.631Z,480.00
2023-04-21T05:33:29.527Z,488.00
2023-04-21T05:34:29.466Z,496.00
2023-04-21T05:35:29.451Z,504.00
2023-04-21T05:36:50.383Z,508.00
2023-04-21T05:37:50.370Z,520.00
2023-04-21T05:38:29.378Z,524.00
2023-04-21T05:39:29.287Z,532.00
2023-04-21T05:40:29.264Z,536.00
2023-04-21T05:41:50.205Z,544.00
2023-04-21T05:42:50.181Z,540.00
2023-04-21T05:43:29.155Z,544.00
2023-04-21T05:44:29.118Z,548.00
2023-04-21T05:45:29.061Z,548.00
2023-04-21T05:46:50.044Z,560.00
2023-04-21T05:47:50.004Z,568.00
2023-04-21T05:48:28.968Z,568.00
2023-04-21T05:49:28.919Z,576.00
2023-04-21T05:50:28.907Z,576.00
2023-04-21T05:51:49.872Z,580.00
2023-04-21T05:52:49.821Z,588.00
2023-04-21T05:53:28.772Z,600.00
2023-04-21T05:54:28.727Z,604.00
2023-04-21T05:55:28.685Z,612.00
2023-04-21T05:56:49.664Z,620.00
2023-04-21T05:57:49.610Z,624.00
2023-04-21T05:58:28.590Z,628.00
2023-04-21T05:59:28.545Z,628.00
2023-04-21T06:00:28.521Z,644.00
2023-04-21T06:01:49.483Z,652.00
2023-04-21T06:02:49.537Z,656.00
2023-04-21T06:03:28.482Z,660.00
2023-04-21T06:04:28.678Z,668.00
2023-04-21T06:05:28.350Z,676.00
2023-04-21T06:06:49.282Z,688.00
2023-04-21T06:07:49.240Z,688.00
2023-04-21T06:08:28.255Z,688.00
2023-04-21T06:09:28.226Z,688.00
2023-04-21T06:10:28.211Z,692.00
2023-04-21T06:11:49.106Z,696.00
2023-04-21T06:12:49.049Z,696.00
2023-04-21T06:13:28.057Z,696.00
2023-04-21T06:14:28.010Z,700.00
2023-04-21T06:15:27.954Z,700.00
2023-04-21T06:16:48.904Z,700.00
2023-04-21T06:17:48.920Z,704.00
2023-04-21T06:18:27.869Z,704.00
2023-04-21T06:19:27.801Z,708.00
2023-04-21T06:20:27.785Z,708.00
2023-04-21T06:21:48.742Z,708.00
2023-04-21T06:22:48.712Z,712.00
2023-04-21T06:23:27.671Z,716.00
2023-04-21T06:24:27.633Z,720.00
2023-04-21T06:25:27.648Z,724.00
2023-04-21T06:26:48.564Z,720.00
2023-04-21T06:27:48.543Z,728.00
2023-04-21T06:28:27.494Z,732.00
2023-04-21T06:29:27.463Z,732.00
2023-04-21T06:30:27.428Z,740.00
2023-04-21T06:31:48.474Z,740.00
2023-04-21T06:32:48.431Z,740.00
2023-04-21T06:33:27.289Z,736.00
2023-04-21T06:34:27.261Z,740.00
2023-04-21T06:35:27.218Z,744.00
2023-04-21T06:36:48.182Z,744.00
2023-04-21T06:37:48.134Z,740.00
2023-04-21T06:38:27.117Z,744.00
2023-04-21T06:39:27.125Z,748.00
2023-04-21T06:40:27.073Z,748.00
2023-04-21T06:41:47.986Z,748.00
2023-04-21T06:42:47.975Z,748.00
2023-04-21T06:43:26.932Z,752.00
2023-04-21T06:44:26.908Z,756.00
2023-04-21T06:45:26.844Z,756.00
2023-04-21T06:46:47.834Z,760.00
2023-04-21T06:47:47.807Z,768.00
2023-04-21T06:48:26.750Z,768.00
2023-04-21T06:49:26.724Z,764.00
2023-04-21T06:50:26.861Z,764.00
2023-04-21T06:51:47.633Z,764.00
2023-04-21T06:52:47.613Z,768.00
2023-04-21T06:53:26.569Z,768.00
2023-04-21T06:54:26.528Z,772.00
2023-04-21T06:55:26.490Z,772.00
2023-04-21T06:56:47.465Z,776.00
2023-04-21T06:57:47.406Z,780.00
2023-04-21T06:58:26.391Z,784.00
2023-04-21T06:59:26.336Z,784.00
2023-04-21T07:00:26.368Z,776.00
2023-04-21T07:01:47.264Z,780.00
2023-04-21T07:02:47.323Z,788.00
2023-04-21T07:03:26.272Z,784.00
2023-04-21T07:04:26.229Z,788.00
2023-04-21T07:05:26.136Z,784.00
2023-04-21T07:06:47.084Z,784.00
2023-04-21T07:07:47.050Z,788.00
2023-04-21T07:08:26.050Z,784.00
2023-04-21T07:09:26.006Z,788.00
2023-04-21T07:10:25.976Z,792.00
2023-04-21T07:11:46.942Z,796.00
2023-04-21T07:12:46.879Z,804.00
2023-04-21T07:13:25.843Z,804.00
2023-04-21T07:14:25.824Z,808.00
2023-04-21T07:15:25.764Z,820.00
2023-04-21T07:16:46.767Z,824.00
2023-04-21T07:17:46.747Z,836.00
2023-04-21T07:18:25.676Z,884.00
2023-04-21T07:19:25.661Z,996.00
2023-04-21T07:20:25.597Z,1132.00
2023-04-21T07:21:46.541Z,1236.00
2023-04-21T07:22:46.519Z,1220.00
2023-04-21T07:23:25.473Z,1296.00
2023-04-21T07:24:25.497Z,1280.00
2023-04-21T07:25:25.396Z,1192.00
2023-04-21T07:26:46.366Z,1136.00
2023-04-21T07:27:46.328Z,1092.00
2023-04-21T07:28:25.315Z,1064.00
2023-04-21T07:29:25.255Z,1032.00
2023-04-21T07:30:25.247Z,1032.00
2023-04-21T07:31:46.175Z,1072.00
2023-04-21T07:32:46.202Z,1072.00
2023-04-21T07:33:25.116Z,1044.00
2023-04-21T07:34:25.078Z,1000.00
2023-04-21T07:35:25.045Z,1000.00
2023-04-21T07:36:46.007Z,1024.00
2023-04-21T07:37:45.974Z,1064.00
2023-04-21T07:38:24.955Z,1068.00
2023-04-21T07:39:24.909Z,980.00
2023-04-21T07:40:24.910Z,1036.00
2023-04-21T07:41:45.805Z,1064.00
2023-04-21T07:42:45.865Z,1052.00
2023-04-21T07:43:24.755Z,1000.00
2023-04-21T07:44:24.710Z,1040.00
2023-04-21T07:45:24.698Z,1020.00
2023-04-21T07:46:45.697Z,980.00
2023-04-21T07:47:45.667Z,936.00
2023-04-21T07:48:24.580Z,972.00
2023-04-21T07:49:24.542Z,984.00
2023-04-21T07:50:24.536Z,952.00
2023-04-21T07:51:45.450Z,892.00
2023-04-21T07:52:45.440Z,884.00
2023-04-21T07:53:24.409Z,920.00
2023-04-21T07:54:24.367Z,1044.00
2023-04-21T07:55:24.330Z,1116.00
2023-04-21T07:56:45.282Z,1208.00
2023-04-21T07:57:45.280Z,1148.00
2023-04-21T07:58:24.225Z,980.00
2023-04-21T07:59:24.188Z,1000.00
2023-04-21T08:00:24.202Z,1060.00
2023-04-21T08:01:45.101Z,1080.00
2023-04-21T08:02:45.091Z,920.00
2023-04-21T08:03:24.731Z,1036.00
2023-04-21T08:04:24.196Z,1048.00
2023-04-21T08:05:25.307Z,1068.00
2023-04-21T08:06:45.110Z,1172.00
2023-04-21T08:07:44.925Z,1228.00
2023-04-21T08:08:23.892Z,1312.00
2023-04-21T08:09:23.842Z,1532.00
2023-04-21T08:10:23.864Z,1460.00
2023-04-21T08:11:44.741Z,1408.00
2023-04-21T08:12:44.778Z,1484.00
2023-04-21T08:13:23.692Z,1448.00
2023-04-21T08:14:23.645Z,1356.00
2023-04-21T08:15:23.611Z,1308.00
2023-04-21T08:16:44.698Z,1332.00
2023-04-21T08:17:44.593Z,1420.00
2023-04-21T08:18:23.657Z,1408.00
2023-04-21T08:19:23.457Z,1244.00
2023-04-21T08:20:23.518Z,1104.00
2023-04-21T08:21:44.416Z,1044.00
2023-04-21T08:22:46.595Z,940.00
2023-04-21T08:23:23.383Z,964.00
2023-04-21T08:24:23.462Z,1000.00
2023-04-21T08:25:23.258Z,932.00
2023-04-21T08:26:44.216Z,980.00
2023-04-21T08:27:44.183Z,1224.00
2023-04-21T08:28:23.188Z,1268.00
2023-04-21T08:29:23.105Z,1192.00
2023-04-21T08:30:23.122Z,1192.00
2023-04-21T08:31:44.074Z,1164.00
2023-04-21T08:32:44.048Z,1136.00
2023-04-21T08:33:23.033Z,1188.00
2023-04-21T08:34:24.991Z,1216.00
2023-04-21T08:35:22.899Z,1212.00
2023-04-21T08:36:43.971Z,1196.00
2023-04-21T08:37:43.857Z,1216.00
2023-04-21T08:38:22.798Z,1188.00
2023-04-21T08:39:22.870Z,1140.00
2023-04-21T08:40:22.777Z,1124.00
2023-04-21T08:41:43.664Z,1088.00
2023-04-21T08:42:43.638Z,1080.00
2023-04-21T08:43:22.627Z,1076.00
2023-04-21T08:44:22.584Z,1112.00
2023-04-21T08:45:22.558Z,1452.00
2023-04-21T08:46:43.518Z,1132.00
2023-04-21T08:47:43.500Z,1588.00
2023-04-21T08:48:22.453Z,1608.00
2023-04-21T08:49:22.482Z,1420.00
2023-04-21T08:50:22.393Z,1524.00
2023-04-21T08:51:43.319Z,1448.00
2023-04-21T08:52:43.316Z,1392.00
2023-04-21T08:53:22.271Z,1468.00
2023-04-21T08:54:22.217Z,1684.00
2023-04-21T08:55:22.198Z,1756.00
2023-04-21T08:56:43.198Z,1844.00
2023-04-21T08:57:43.155Z,1564.00
2023-04-21T08:58:22.118Z,1540.00
2023-04-21T08:59:22.251Z,1664.00
2023-04-21T09:00:22.036Z,1700.00
2023-04-21T09:01:43.098Z,1624.00
2023-04-21T09:02:43.100Z,1468.00
2023-04-21T09:03:26.057Z,1312.00
2023-04-21T09:04:22.076Z,1224.00
2023-04-21T09:05:22.162Z,1176.00
2023-04-21T09:06:42.830Z,1156.00
2023-04-21T09:07:42.769Z,1148.00
2023-04-21T09:08:21.761Z,1164.00
2023-04-21T09:09:21.990Z,1148.00
2023-04-21T09:10:21.694Z,1148.00
2023-04-21T09:11:42.648Z,1184.00
2023-04-21T09:12:42.622Z,1236.00
2023-04-21T09:13:21.564Z,1284.00
2023-04-21T09:14:21.551Z,1308.00
2023-04-21T09:15:21.520Z,1400.00
2023-04-21T09:16:42.536Z,1676.00
2023-04-21T09:17:42.470Z,1656.00
2023-04-21T09:18:21.443Z,1632.00
2023-04-21T09:19:21.572Z,1708.00
2023-04-21T09:20:21.354Z,1748.00
2023-04-21T09:21:42.309Z,1708.00
2023-04-21T09:22:42.259Z,1624.00
2023-04-21T09:23:21.246Z,1580.00
2023-04-21T09:24:24.549Z,1540.00
2023-04-21T09:25:31.043Z,1524.00
2023-04-21T09:27:42.110Z,1484.00
2023-04-21T09:28:21.061Z,1468.00
2023-04-21T09:29:21.211Z,1436.00
2023-04-21T09:30:21.008Z,1432.00
2023-04-21T09:31:41.966Z,1428.00
2023-04-21T09:32:41.991Z,1416.00
2023-04-21T09:33:29.612Z,1288.00
2023-04-21T09:34:20.893Z,1332.00
2023-04-21T09:35:20.829Z,1172.00
2023-04-21T09:36:41.790Z,1260.00
2023-04-21T09:37:41.759Z,1580.00
2023-04-21T09:38:20.731Z,1600.00
2023-04-21T09:39:38.334Z,1468.00
2023-04-21T09:40:20.684Z,1336.00
2023-04-21T09:41:41.602Z,1272.00
2023-04-21T09:42:43.108Z,1368.00
2023-04-21T09:43:20.568Z,1496.00
2023-04-21T09:44:21.482Z,1576.00
2023-04-21T09:46:41.611Z,1568.00
2023-04-21T09:47:41.452Z,1500.00
2023-04-21T09:48:22.409Z,1432.00
2023-04-21T09:49:20.325Z,1476.00
2023-04-21T09:50:33.449Z,1512.00
2023-04-21T09:52:02.109Z,2108.00
2023-04-21T09:52:41.226Z,2164.00
2023-04-21T09:53:20.217Z,1976.00
2023-04-21T09:54:29.099Z,1792.00
2023-04-21T09:55:20.161Z,1836.00
2023-04-21T09:56:41.110Z,1552.00
2023-04-21T09:57:41.055Z,1552.00
2023-04-21T09:58:20.039Z,1568.00
2023-04-21T09:59:21.747Z,1484.00
2023-04-21T10:00:19.974Z,1408.00
2023-04-21T10:01:40.976Z,1532.00
2023-04-21T10:02:40.986Z,1488.00
2023-04-21T10:03:20.035Z,1424.00
2023-04-21T10:04:20.400Z,1720.00
2023-04-21T10:05:19.810Z,2140.00
2023-04-21T10:06:40.769Z,2264.00
2023-04-21T10:07:40.794Z,2368.00
2023-04-21T10:08:19.704Z,2256.00
2023-04-21T10:09:19.656Z,2400.00
2023-04-21T10:10:19.635Z,2500.00
2023-04-21T10:11:40.581Z,2212.00
2023-04-21T10:12:40.592Z,2220.00
2023-04-21T10:13:19.522Z,2644.00
2023-04-21T10:14:19.604Z,2316.00
2023-04-21T10:15:19.463Z,2000.00
2023-04-21T10:16:40.581Z,1828.00
2023-04-21T10:17:40.447Z,1640.00
2023-04-21T10:18:19.375Z,1912.00
2023-04-21T10:19:19.646Z,1884.00
2023-04-21T10:20:19.314Z,1808.00
2023-04-21T10:21:40.262Z,1732.00
2023-04-21T10:22:40.255Z,1944.00
2023-04-21T10:23:19.202Z,1940.00
2023-04-21T10:24:19.434Z,1904.00
2023-04-21T10:25:19.177Z,1912.00
2023-04-21T10:26:40.109Z,2152.00
2023-04-21T10:27:40.070Z,2064.00
2023-04-21T10:28:19.074Z,2136.00
2023-04-21T10:29:19.234Z,2584.00
2023-04-21T10:30:18.973Z,2424.00
2023-04-21T10:31:40.044Z,2620.00
2023-04-21T10:32:40.010Z,2724.00
2023-04-21T10:33:18.888Z,2516.00
2023-04-21T10:34:19.020Z,2296.00
2023-04-21T10:35:18.826Z,2324.00
2023-04-21T10:36:39.801Z,2520.00
2023-04-21T10:37:39.744Z,2228.00
2023-04-21T10:38:18.735Z,2176.00
2023-04-21T10:39:18.868Z,2188.00
2023-04-21T10:40:18.652Z,2880.00
2023-04-21T10:41:39.617Z,3072.00
2023-04-21T10:42:39.568Z,3344.00
2023-04-21T10:43:18.544Z,3004.00
2023-04-21T10:44:18.818Z,3068.00
2023-04-21T10:45:18.512Z,2700.00
2023-04-21T10:46:39.663Z,2884.00
2023-04-21T10:47:39.447Z,2640.00
2023-04-21T10:48:18.387Z,2388.00
2023-04-21T10:49:18.378Z,2388.00
2023-04-21T10:50:18.338Z,2456.00
2023-04-21T10:51:39.294Z,2660.00
2023-04-21T10:52:39.266Z,2752.00
2023-04-21T10:53:18.281Z,1812.00
2023-04-21T10:54:18.487Z,1824.00
2023-04-21T10:55:18.197Z,3336.00
2023-04-21T10:56:39.155Z,3224.00
2023-04-21T10:57:39.101Z,3140.00
2023-04-21T10:58:18.102Z,3132.00
2023-04-21T10:59:18.081Z,3056.00
2023-04-21T11:00:18.016Z,3088.00
2023-04-21T11:01:39.033Z,2064.00
2023-04-21T11:02:41.072Z,2808.00
2023-04-21T11:03:18.144Z,2060.00
2023-04-21T11:04:18.189Z,2168.00
2023-04-21T11:05:17.871Z,3880.00
2023-04-21T11:06:38.870Z,3840.00
2023-04-21T11:07:38.816Z,3916.00
2023-04-21T11:08:17.770Z,3816.00
2023-04-21T11:09:17.756Z,3868.00
2023-04-21T11:10:17.716Z,3856.00
2023-04-21T11:11:38.670Z,3844.00
2023-04-21T11:12:38.681Z,3936.00
2023-04-21T11:13:17.637Z,3908.00
2023-04-21T11:14:17.763Z,3900.00
2023-04-21T11:15:17.556Z,3988.00
2023-04-21T11:16:38.612Z,4076.00
2023-04-21T11:17:38.625Z,4064.00
2023-04-21T11:18:17.468Z,4328.00
2023-04-21T11:19:17.442Z,2176.00
2023-04-21T11:20:17.441Z,3280.00
2023-04-21T11:21:38.376Z,5000.00
2023-04-21T11:22:38.381Z,4952.00
2023-04-21T11:23:17.305Z,4676.00
2023-04-21T11:24:17.515Z,4940.00
2023-04-21T11:25:17.262Z,5032.00
2023-04-21T11:26:38.231Z,5068.00
2023-04-21T11:27:38.196Z,4024.00
2023-04-21T11:28:17.158Z,4600.00
2023-04-21T11:29:17.150Z,5876.00
2023-04-21T11:30:17.101Z,5804.00
2023-04-21T11:31:38.192Z,5968.00
2023-04-21T11:32:38.505Z,5976.00
2023-04-21T11:33:17.105Z,5912.00
2023-04-21T11:34:17.105Z,5868.00
2023-04-21T11:35:17.005Z,5972.00
2023-04-21T11:36:37.944Z,6164.00
2023-04-21T11:37:37.935Z,6104.00
2023-04-21T11:38:16.889Z,6276.00
2023-04-21T11:39:17.268Z,6424.00
2023-04-21T11:40:16.850Z,6560.00
2023-04-21T11:41:37.820Z,6616.00
2023-04-21T11:42:37.772Z,6692.00
2023-04-21T11:43:16.773Z,6792.00
2023-04-21T11:44:16.716Z,6928.00
2023-04-21T11:45:16.695Z,6948.00
2023-04-21T11:46:37.751Z,7044.00
2023-04-21T11:47:37.682Z,7088.00
2023-04-21T11:48:16.632Z,7340.00
2023-04-21T11:49:16.584Z,7384.00
2023-04-21T11:50:16.582Z,7440.00
2023-04-21T11:51:37.614Z,7364.00
2023-04-21T11:52:37.751Z,6348.00
2023-04-21T11:53:16.493Z,2464.00
2023-04-21T11:54:16.453Z,7696.00
2023-04-21T11:55:16.448Z,7968.00
2023-04-21T11:56:37.392Z,8224.00
2023-04-21T11:57:37.401Z,8116.00
2023-04-21T11:58:16.350Z,8036.00
2023-04-21T11:59:16.340Z,8336.00
2023-04-21T12:00:16.305Z,2576.00
2023-04-21T12:01:37.268Z,7640.00
2023-04-21T12:02:37.387Z,9216.00
2023-04-21T12:03:16.385Z,9096.00
2023-04-21T12:04:16.562Z,9356.00
2023-04-21T12:05:16.173Z,9384.00
2023-04-21T12:06:37.153Z,9464.00
2023-04-21T12:07:37.115Z,9360.00
2023-04-21T12:08:16.089Z,9468.00
2023-04-21T12:09:16.065Z,9588.00
2023-04-21T12:10:16.034Z,9612.00
2023-04-21T12:11:37.009Z,9564.00
2023-04-21T12:12:36.964Z,9604.00
2023-04-21T12:13:17.755Z,9548.00
2023-04-21T12:14:15.926Z,9604.00
2023-04-21T12:15:15.892Z,9832.00
2023-04-21T12:16:36.898Z,10116.00
2023-04-21T12:17:36.912Z,10112.00
2023-04-21T12:18:15.938Z,9964.00
2023-04-21T12:19:15.791Z,9848.00
2023-04-21T12:20:15.761Z,10376.00
2023-04-21T12:21:36.754Z,10376.00
2023-04-21T12:22:36.729Z,10464.00
2023-04-21T12:23:15.695Z,10500.00
2023-04-21T12:24:15.664Z,10520.00
2023-04-21T12:25:15.647Z,10604.00
2023-04-21T12:26:36.651Z,10836.00
2023-04-21T12:27:36.610Z,10836.00
2023-04-21T12:28:15.571Z,10440.00
2023-04-21T12:29:15.522Z,10776.00
2023-04-21T12:30:15.539Z,10784.00
2023-04-21T12:31:36.529Z,11108.00
2023-04-21T12:32:36.467Z,10928.00
2023-04-21T12:33:15.498Z,9336.00
2023-04-21T12:34:15.505Z,11804.00
2023-04-21T12:35:15.390Z,11944.00
2023-04-21T12:36:36.637Z,9268.00
2023-04-21T12:37:36.320Z,11956.00